sensor_id;sensor_type;location;lat;lon;timestamp;P1;durP1;ratioP1;P2;durP2;ratioP2
53899;SDS011;40509;32.858;-116.858;2023-05-07T00:01:50;0.17;;;0.17;;
53899;SDS011;40509;32.858;-116.858;2023-05-07T00:04:18;0.68;;;0.68;;
53899;SDS011;40509;32.858;-116.858;2023-05-07T00:06:45;0.17;;;0.17;;
53899;SDS011;40509;32.858;-116.858;2023-05-07T00:09:12;0.40;;;0.32;;
53899;SDS011;40509;32.858;-116.858;2023-05-07T00:11:39;0.30;;;0.30;;
53899;SDS011;40509;32.858;-116.858;2023-05-07T00:14:06;3.30;;;0.50;;
53899;SDS011;40509;32.858;-116.858;2023-05-07T00:16:34;3.80;;;0.93;;
53899;SDS011;40509;32.858;-116.858;2023-05-07T00:19:01;0.20;;;0.20;;
53899;SDS011;40509;32.858;-116.858;2023-05-07T00:21:28;1.67;;;0.52;;
53899;SDS011;40509;32.858;-116.858;2023-05-07T00:23:55;1.23;;;0.20;;
53899;SDS011;40509;32.858;-116.858;2023-05-07T00:26:22;0.15;;;0.15;;
53899;SDS011;40509;32.858;-116.858;2023-05-07T00:28:50;1.17;;;0.17;;
53899;SDS011;40509;32.858;-116.858;2023-05-07T00:31:18;5.57;;;1.35;;
53899;SDS011;40509;32.858;-116.858;2023-05-07T00:33:45;0.45;;;0.45;;
53899;SDS011;40509;32.858;-116.858;2023-05-07T00:36:13;1.33;;;0.35;;
53899;SDS011;40509;32.858;-116.858;2023-05-07T00:38:41;0.20;;;0.20;;
53899;SDS011;40509;32.858;-116.858;2023-05-07T00:41:09;8.50;;;1.05;;
53899;SDS011;40509;32.858;-116.858;2023-05-07T00:43:36;2.95;;;0.75;;
53899;SDS011;40509;32.858;-116.858;2023-05-07T00:46:04;4.65;;;0.68;;
53899;SDS011;40509;32.858;-116.858;2023-05-07T00:48:31;3.72;;;0.95;;
53899;SDS011;40509;32.858;-116.858;2023-05-07T00:50:58;3.30;;;0.85;;
53899;SDS011;40509;32.858;-116.858;2023-05-07T00:53:25;0.35;;;0.35;;
53899;SDS011;40509;32.858;-116.858;2023-05-07T00:55:53;3.10;;;0.50;;
53899;SDS011;40509;32.858;-116.858;2023-05-07T00:58:22;4.93;;;1.23;;
53899;SDS011;40509;32.858;-116.858;2023-05-07T01:00:51;9.38;;;0.85;;
53899;SDS011;40509;32.858;-116.858;2023-05-07T01:03:18;6.97;;;1.58;;
53899;SDS011;40509;32.858;-116.858;2023-05-07T01:05:45;3.30;;;0.75;;
53899;SDS011;40509;32.858;-116.858;2023-05-07T01:08:14;3.90;;;0.98;;
53899;SDS011;40509;32.858;-116.858;2023-05-07T01:10:43;2.75;;;0.70;;
53899;SDS011;40509;32.858;-116.858;2023-05-07T01:13:11;4.57;;;0.93;;
53899;SDS011;40509;32.858;-116.858;2023-05-07T01:15:42;2.58;;;1.58;;
53899;SDS011;40509;32.858;-116.858;2023-05-07T01:18:09;5.28;;;1.33;;
53899;SDS011;40509;32.858;-116.858;2023-05-07T01:20:37;2.50;;;0.35;;
53899;SDS011;40509;32.858;-116.858;2023-05-07T01:23:05;1.98;;;0.45;;
53899;SDS011;40509;32.858;-116.858;2023-05-07T01:25:34;3.35;;;0.70;;
53899;SDS011;40509;32.858;-116.858;2023-05-07T01:28:01;7.60;;;0.57;;
53899;SDS011;40509;32.858;-116.858;2023-05-07T01:30:33;1.27;;;0.75;;
53899;SDS011;40509;32.858;-116.858;2023-05-07T01:33:09;1.20;;;0.50;;
53899;SDS011;40509;32.858;-116.858;2023-05-07T01:35:41;0.63;;;0.55;;
53899;SDS011;40509;32.858;-116.858;2023-05-07T01:38:12;4.78;;;0.75;;
53899;SDS011;40509;32.858;-116.858;2023-05-07T01:40:40;0.55;;;0.50;;
53899;SDS011;40509;32.858;-116.858;2023-05-07T01:43:08;0.55;;;0.45;;
53899;SDS011;40509;32.858;-116.858;2023-05-07T01:45:37;1.13;;;1.05;;
53899;SDS011;40509;32.858;-116.858;2023-05-07T01:48:05;4.78;;;0.77;;
53899;SDS011;40509;32.858;-116.858;2023-05-07T01:50:33;1.13;;;0.40;;
53899;SDS011;40509;32.858;-116.858;2023-05-07T01:53:02;3.10;;;0.40;;
53899;SDS011;40509;32.858;-116.858;2023-05-07T01:55:29;0.20;;;0.20;;
53899;SDS011;40509;32.858;-116.858;2023-05-07T01:57:58;1.27;;;0.47;;
53899;SDS011;40509;32.858;-116.858;2023-05-07T02:00:25;2.35;;;0.60;;
53899;SDS011;40509;32.858;-116.858;2023-05-07T02:02:53;8.40;;;1.23;;
53899;SDS011;40509;32.858;-116.858;2023-05-07T02:05:32;1.50;;;0.45;;
53899;SDS011;40509;32.858;-116.858;2023-05-07T02:08:20;1.13;;;0.47;;
53899;SDS011;40509;32.858;-116.858;2023-05-07T02:10:47;8.90;;;0.73;;
53899;SDS011;40509;32.858;-116.858;2023-05-07T02:13:14;0.40;;;0.38;;
53899;SDS011;40509;32.858;-116.858;2023-05-07T02:15:41;6.78;;;1.33;;
53899;SDS011;40509;32.858;-116.858;2023-05-07T02:18:09;0.43;;;0.43;;
53899;SDS011;40509;32.858;-116.858;2023-05-07T02:20:37;9.52;;;1.38;;
53899;SDS011;40509;32.858;-116.858;2023-05-07T02:23:04;2.53;;;0.90;;
53899;SDS011;40509;32.858;-116.858;2023-05-07T02:25:31;11.45;;;1.67;;
53899;SDS011;40509;32.858;-116.858;2023-05-07T02:27:59;8.63;;;1.00;;
53899;SDS011;40509;32.858;-116.858;2023-05-07T02:30:52;0.30;;;0.30;;
53899;SDS011;40509;32.858;-116.858;2023-05-07T02:33:20;1.27;;;0.85;;
53899;SDS011;40509;32.858;-116.858;2023-05-07T02:35:47;1.33;;;0.90;;
53899;SDS011;40509;32.858;-116.858;2023-05-07T02:38:15;2.80;;;1.20;;
53899;SDS011;40509;32.858;-116.858;2023-05-07T02:40:43;1.95;;;0.90;;
53899;SDS011;40509;32.858;-116.858;2023-05-07T02:43:11;0.47;;;0.47;;
53899;SDS011;40509;32.858;-116.858;2023-05-07T02:45:41;3.83;;;0.47;;
53899;SDS011;40509;32.858;-116.858;2023-05-07T02:48:09;1.23;;;0.77;;
53899;SDS011;40509;32.858;-116.858;2023-05-07T02:50:37;13.10;;;1.63;;
53899;SDS011;40509;32.858;-116.858;2023-05-07T02:53:04;2.22;;;0.68;;
53899;SDS011;40509;32.858;-116.858;2023-05-07T02:55:31;4.88;;;0.73;;
53899;SDS011;40509;32.858;-116.858;2023-05-07T02:57:58;1.38;;;0.40;;
53899;SDS011;40509;32.858;-116.858;2023-05-07T03:00:26;3.28;;;1.30;;
53899;SDS011;40509;32.858;-116.858;2023-05-07T03:03:04;0.70;;;0.52;;
53899;SDS011;40509;32.858;-116.858;2023-05-07T03:05:31;0.85;;;0.82;;
53899;SDS011;40509;32.858;-116.858;2023-05-07T03:07:58;6.70;;;0.73;;
53899;SDS011;40509;32.858;-116.858;2023-05-07T03:10:25;8.05;;;0.93;;
53899;SDS011;40509;32.858;-116.858;2023-05-07T03:12:53;5.45;;;0.63;;
53899;SDS011;40509;32.858;-116.858;2023-05-07T03:15:20;1.65;;;0.93;;
53899;SDS011;40509;32.858;-116.858;2023-05-07T03:17:48;2.55;;;0.73;;
53899;SDS011;40509;32.858;-116.858;2023-05-07T03:20:15;4.78;;;0.65;;
53899;SDS011;40509;32.858;-116.858;2023-05-07T03:22:42;4.25;;;1.05;;
53899;SDS011;40509;32.858;-116.858;2023-05-07T03:25:09;4.22;;;1.85;;
53899;SDS011;40509;32.858;-116.858;2023-05-07T03:27:37;5.03;;;1.17;;
53899;SDS011;40509;32.858;-116.858;2023-05-07T03:30:04;7.68;;;1.58;;
53899;SDS011;40509;32.858;-116.858;2023-05-07T03:32:32;3.40;;;0.55;;
53899;SDS011;40509;32.858;-116.858;2023-05-07T03:35:01;8.27;;;1.85;;
53899;SDS011;40509;32.858;-116.858;2023-05-07T03:37:28;2.38;;;0.70;;
53899;SDS011;40509;32.858;-116.858;2023-05-07T03:39:55;5.68;;;1.55;;
53899;SDS011;40509;32.858;-116.858;2023-05-07T03:42:23;10.73;;;2.30;;
53899;SDS011;40509;32.858;-116.858;2023-05-07T03:44:52;7.97;;;1.23;;
53899;SDS011;40509;32.858;-116.858;2023-05-07T03:47:19;13.25;;;1.27;;
53899;SDS011;40509;32.858;-116.858;2023-05-07T03:49:47;14.30;;;2.17;;
53899;SDS011;40509;32.858;-116.858;2023-05-07T03:52:15;7.38;;;1.40;;
53899;SDS011;40509;32.858;-116.858;2023-05-07T03:54:48;3.08;;;1.23;;
53899;SDS011;40509;32.858;-116.858;2023-05-07T03:57:16;11.00;;;1.30;;
53899;SDS011;40509;32.858;-116.858;2023-05-07T03:59:44;5.20;;;1.05;;
53899;SDS011;40509;32.858;-116.858;2023-05-07T04:02:11;6.82;;;1.30;;
53899;SDS011;40509;32.858;-116.858;2023-05-07T04:04:38;10.15;;;2.20;;
53899;SDS011;40509;32.858;-116.858;2023-05-07T04:07:06;9.23;;;1.58;;
53899;SDS011;40509;32.858;-116.858;2023-05-07T04:09:38;6.18;;;1.63;;
53899;SDS011;40509;32.858;-116.858;2023-05-07T04:12:06;10.85;;;1.92;;
53899;SDS011;40509;32.858;-116.858;2023-05-07T04:14:34;6.95;;;2.25;;
53899;SDS011;40509;32.858;-116.858;2023-05-07T04:17:02;9.98;;;2.58;;
53899;SDS011;40509;32.858;-116.858;2023-05-07T04:19:30;12.63;;;2.42;;
53899;SDS011;40509;32.858;-116.858;2023-05-07T04:21:59;10.57;;;1.55;;
53899;SDS011;40509;32.858;-116.858;2023-05-07T04:24:27;7.25;;;2.13;;
53899;SDS011;40509;32.858;-116.858;2023-05-07T04:26:54;6.90;;;2.10;;
53899;SDS011;40509;32.858;-116.858;2023-05-07T04:29:21;12.82;;;2.10;;
53899;SDS011;40509;32.858;-116.858;2023-05-07T04:31:48;7.93;;;1.63;;
53899;SDS011;40509;32.858;-116.858;2023-05-07T04:34:16;8.95;;;2.63;;
53899;SDS011;40509;32.858;-116.858;2023-05-07T04:36:43;3.65;;;1.85;;
53899;SDS011;40509;32.858;-116.858;2023-05-07T04:39:13;3.90;;;1.70;;
53899;SDS011;40509;32.858;-116.858;2023-05-07T04:41:43;4.13;;;1.40;;
53899;SDS011;40509;32.858;-116.858;2023-05-07T04:44:11;2.65;;;1.27;;
53899;SDS011;40509;32.858;-116.858;2023-05-07T04:46:38;11.63;;;2.42;;
53899;SDS011;40509;32.858;-116.858;2023-05-07T04:49:05;8.40;;;1.67;;
53899;SDS011;40509;32.858;-116.858;2023-05-07T04:51:34;5.15;;;1.48;;
53899;SDS011;40509;32.858;-116.858;2023-05-07T04:54:01;9.63;;;1.48;;
53899;SDS011;40509;32.858;-116.858;2023-05-07T04:56:30;6.40;;;1.77;;
53899;SDS011;40509;32.858;-116.858;2023-05-07T04:58:58;1.73;;;0.70;;
53899;SDS011;40509;32.858;-116.858;2023-05-07T05:01:25;4.45;;;1.10;;
53899;SDS011;40509;32.858;-116.858;2023-05-07T05:03:53;5.07;;;1.13;;
53899;SDS011;40509;32.858;-116.858;2023-05-07T05:06:20;3.22;;;1.10;;
53899;SDS011;40509;32.858;-116.858;2023-05-07T05:08:47;7.38;;;1.25;;
53899;SDS011;40509;32.858;-116.858;2023-05-07T05:11:15;6.78;;;1.35;;
53899;SDS011;40509;32.858;-116.858;2023-05-07T05:13:42;5.63;;;0.93;;
53899;SDS011;40509;32.858;-116.858;2023-05-07T05:16:16;7.18;;;0.98;;
53899;SDS011;40509;32.858;-116.858;2023-05-07T05:18:43;2.50;;;1.10;;
53899;SDS011;40509;32.858;-116.858;2023-05-07T05:21:13;2.65;;;1.05;;
53899;SDS011;40509;32.858;-116.858;2023-05-07T05:23:42;3.80;;;1.10;;
53899;SDS011;40509;32.858;-116.858;2023-05-07T05:26:09;16.98;;;1.55;;
53899;SDS011;40509;32.858;-116.858;2023-05-07T05:28:36;12.63;;;1.60;;
53899;SDS011;40509;32.858;-116.858;2023-05-07T05:31:04;12.23;;;2.05;;
53899;SDS011;40509;32.858;-116.858;2023-05-07T05:33:34;11.27;;;2.10;;
53899;SDS011;40509;32.858;-116.858;2023-05-07T05:36:04;2.47;;;0.80;;
53899;SDS011;40509;32.858;-116.858;2023-05-07T05:38:33;1.88;;;1.13;;
53899;SDS011;40509;32.858;-116.858;2023-05-07T05:41:00;5.00;;;1.52;;
53899;SDS011;40509;32.858;-116.858;2023-05-07T05:43:29;3.40;;;0.80;;
53899;SDS011;40509;32.858;-116.858;2023-05-07T05:45:56;5.57;;;1.00;;
53899;SDS011;40509;32.858;-116.858;2023-05-07T05:48:24;2.25;;;1.30;;
53899;SDS011;40509;32.858;-116.858;2023-05-07T05:50:51;1.42;;;1.08;;
53899;SDS011;40509;32.858;-116.858;2023-05-07T05:53:19;1.98;;;1.52;;
53899;SDS011;40509;32.858;-116.858;2023-05-07T05:55:46;3.83;;;1.23;;
53899;SDS011;40509;32.858;-116.858;2023-05-07T05:58:14;5.60;;;1.13;;
53899;SDS011;40509;32.858;-116.858;2023-05-07T06:03:15;5.18;;;1.70;;
53899;SDS011;40509;32.858;-116.858;2023-05-07T06:05:43;5.38;;;1.30;;
53899;SDS011;40509;32.858;-116.858;2023-05-07T06:08:10;4.50;;;1.08;;
53899;SDS011;40509;32.858;-116.858;2023-05-07T06:10:37;4.18;;;0.75;;
53899;SDS011;40509;32.858;-116.858;2023-05-07T06:13:07;6.63;;;1.27;;
53899;SDS011;40509;32.858;-116.858;2023-05-07T06:15:36;2.95;;;1.40;;
53899;SDS011;40509;32.858;-116.858;2023-05-07T06:18:09;4.30;;;0.95;;
53899;SDS011;40509;32.858;-116.858;2023-05-07T06:20:36;2.38;;;0.93;;
53899;SDS011;40509;32.858;-116.858;2023-05-07T06:23:07;1.77;;;0.88;;
53899;SDS011;40509;32.858;-116.858;2023-05-07T06:25:34;3.10;;;0.75;;
53899;SDS011;40509;32.858;-116.858;2023-05-07T06:28:01;2.28;;;1.30;;
53899;SDS011;40509;32.858;-116.858;2023-05-07T06:30:30;1.23;;;0.85;;
53899;SDS011;40509;32.858;-116.858;2023-05-07T06:32:57;1.30;;;0.90;;
53899;SDS011;40509;32.858;-116.858;2023-05-07T06:35:26;1.50;;;0.68;;
53899;SDS011;40509;32.858;-116.858;2023-05-07T06:37:53;1.75;;;1.00;;
53899;SDS011;40509;32.858;-116.858;2023-05-07T06:40:24;1.38;;;0.65;;
53899;SDS011;40509;32.858;-116.858;2023-05-07T06:42:51;3.75;;;0.90;;
53899;SDS011;40509;32.858;-116.858;2023-05-07T06:45:29;1.10;;;0.88;;
53899;SDS011;40509;32.858;-116.858;2023-05-07T06:47:57;1.73;;;0.95;;
53899;SDS011;40509;32.858;-116.858;2023-05-07T06:50:25;2.13;;;0.93;;
53899;SDS011;40509;32.858;-116.858;2023-05-07T06:52:56;4.78;;;1.10;;
53899;SDS011;40509;32.858;-116.858;2023-05-07T06:55:23;10.10;;;1.63;;
53899;SDS011;40509;32.858;-116.858;2023-05-07T06:57:51;1.48;;;1.10;;
53899;SDS011;40509;32.858;-116.858;2023-05-07T07:00:19;1.88;;;0.73;;
53899;SDS011;40509;32.858;-116.858;2023-05-07T07:02:52;2.38;;;0.68;;
53899;SDS011;40509;32.858;-116.858;2023-05-07T07:05:24;1.15;;;0.73;;
53899;SDS011;40509;32.858;-116.858;2023-05-07T07:07:51;2.05;;;1.05;;
53899;SDS011;40509;32.858;-116.858;2023-05-07T07:10:22;1.10;;;0.73;;
53899;SDS011;40509;32.858;-116.858;2023-05-07T07:12:51;2.97;;;0.43;;
53899;SDS011;40509;32.858;-116.858;2023-05-07T07:15:19;2.15;;;0.80;;
53899;SDS011;40509;32.858;-116.858;2023-05-07T07:17:48;1.20;;;0.77;;
53899;SDS011;40509;32.858;-116.858;2023-05-07T07:20:15;1.75;;;0.60;;
53899;SDS011;40509;32.858;-116.858;2023-05-07T07:22:44;1.02;;;0.77;;
53899;SDS011;40509;32.858;-116.858;2023-05-07T07:25:12;0.60;;;0.52;;
53899;SDS011;40509;32.858;-116.858;2023-05-07T07:27:39;1.05;;;0.52;;
53899;SDS011;40509;32.858;-116.858;2023-05-07T07:30:07;4.28;;;0.77;;
53899;SDS011;40509;32.858;-116.858;2023-05-07T07:32:37;4.95;;;1.05;;
53899;SDS011;40509;32.858;-116.858;2023-05-07T07:35:04;1.52;;;0.88;;
53899;SDS011;40509;32.858;-116.858;2023-05-07T07:37:33;5.63;;;0.82;;
53899;SDS011;40509;32.858;-116.858;2023-05-07T07:40:00;3.30;;;0.80;;
53899;SDS011;40509;32.858;-116.858;2023-05-07T07:42:28;0.75;;;0.65;;
53899;SDS011;40509;32.858;-116.858;2023-05-07T07:44:56;3.38;;;0.60;;
53899;SDS011;40509;32.858;-116.858;2023-05-07T07:47:25;1.60;;;0.57;;
53899;SDS011;40509;32.858;-116.858;2023-05-07T07:49:52;1.35;;;0.60;;
53899;SDS011;40509;32.858;-116.858;2023-05-07T07:52:19;0.40;;;0.30;;
53899;SDS011;40509;32.858;-116.858;2023-05-07T07:54:47;3.80;;;0.73;;
53899;SDS011;40509;32.858;-116.858;2023-05-07T07:57:15;2.25;;;1.27;;
53899;SDS011;40509;32.858;-116.858;2023-05-07T07:59:42;4.90;;;0.57;;
53899;SDS011;40509;32.858;-116.858;2023-05-07T08:02:11;4.57;;;1.10;;
53899;SDS011;40509;32.858;-116.858;2023-05-07T08:04:39;0.88;;;0.80;;
53899;SDS011;40509;32.858;-116.858;2023-05-07T08:07:07;0.65;;;0.50;;
53899;SDS011;40509;32.858;-116.858;2023-05-07T08:09:38;5.82;;;1.48;;
53899;SDS011;40509;32.858;-116.858;2023-05-07T08:12:06;2.50;;;0.82;;
53899;SDS011;40509;32.858;-116.858;2023-05-07T08:14:34;0.80;;;0.55;;
53899;SDS011;40509;32.858;-116.858;2023-05-07T08:17:04;1.23;;;0.80;;
53899;SDS011;40509;32.858;-116.858;2023-05-07T08:19:31;3.60;;;0.95;;
53899;SDS011;40509;32.858;-116.858;2023-05-07T08:21:59;4.60;;;0.90;;
53899;SDS011;40509;32.858;-116.858;2023-05-07T08:24:26;1.58;;;0.70;;
53899;SDS011;40509;32.858;-116.858;2023-05-07T08:26:54;3.33;;;0.82;;
53899;SDS011;40509;32.858;-116.858;2023-05-07T08:29:21;2.45;;;0.40;;
53899;SDS011;40509;32.858;-116.858;2023-05-07T08:31:48;2.33;;;0.70;;
53899;SDS011;40509;32.858;-116.858;2023-05-07T08:34:16;0.73;;;0.73;;
53899;SDS011;40509;32.858;-116.858;2023-05-07T08:36:46;1.05;;;0.70;;
53899;SDS011;40509;32.858;-116.858;2023-05-07T08:39:16;1.48;;;0.60;;
53899;SDS011;40509;32.858;-116.858;2023-05-07T08:41:47;2.95;;;1.17;;
53899;SDS011;40509;32.858;-116.858;2023-05-07T08:44:18;4.03;;;0.98;;
53899;SDS011;40509;32.858;-116.858;2023-05-07T08:46:50;1.80;;;0.60;;
53899;SDS011;40509;32.858;-116.858;2023-05-07T08:49:20;2.22;;;0.60;;
53899;SDS011;40509;32.858;-116.858;2023-05-07T08:51:48;1.85;;;0.57;;
53899;SDS011;40509;32.858;-116.858;2023-05-07T08:54:16;1.23;;;0.60;;
53899;SDS011;40509;32.858;-116.858;2023-05-07T08:56:44;0.70;;;0.40;;
53899;SDS011;40509;32.858;-116.858;2023-05-07T08:59:12;1.95;;;0.77;;
53899;SDS011;40509;32.858;-116.858;2023-05-07T09:01:39;1.25;;;0.55;;
53899;SDS011;40509;32.858;-116.858;2023-05-07T09:04:07;1.48;;;0.70;;
53899;SDS011;40509;32.858;-116.858;2023-05-07T09:06:36;2.30;;;0.93;;
53899;SDS011;40509;32.858;-116.858;2023-05-07T09:09:08;1.20;;;0.60;;
53899;SDS011;40509;32.858;-116.858;2023-05-07T09:11:36;0.88;;;0.50;;
53899;SDS011;40509;32.858;-116.858;2023-05-07T09:14:03;0.68;;;0.43;;
53899;SDS011;40509;32.858;-116.858;2023-05-07T09:16:36;2.47;;;0.70;;
53899;SDS011;40509;32.858;-116.858;2023-05-07T09:19:03;2.22;;;0.50;;
53899;SDS011;40509;32.858;-116.858;2023-05-07T09:21:31;1.20;;;0.47;;
53899;SDS011;40509;32.858;-116.858;2023-05-07T09:24:01;0.40;;;0.40;;
53899;SDS011;40509;32.858;-116.858;2023-05-07T09:26:34;2.47;;;0.65;;
53899;SDS011;40509;32.858;-116.858;2023-05-07T09:29:03;0.95;;;0.65;;
53899;SDS011;40509;32.858;-116.858;2023-05-07T09:31:30;0.85;;;0.38;;
53899;SDS011;40509;32.858;-116.858;2023-05-07T09:33:58;0.63;;;0.40;;
53899;SDS011;40509;32.858;-116.858;2023-05-07T09:36:29;3.33;;;0.30;;
53899;SDS011;40509;32.858;-116.858;2023-05-07T09:39:00;0.60;;;0.40;;
53899;SDS011;40509;32.858;-116.858;2023-05-07T09:41:28;0.35;;;0.25;;
53899;SDS011;40509;32.858;-116.858;2023-05-07T09:44:13;0.73;;;0.40;;
53899;SDS011;40509;32.858;-116.858;2023-05-07T09:46:44;1.50;;;0.57;;
53899;SDS011;40509;32.858;-116.858;2023-05-07T09:49:22;1.05;;;0.70;;
53899;SDS011;40509;32.858;-116.858;2023-05-07T09:51:58;0.73;;;0.73;;
53899;SDS011;40509;32.858;-116.858;2023-05-07T09:54:29;1.85;;;0.68;;
53899;SDS011;40509;32.858;-116.858;2023-05-07T09:56:58;4.05;;;0.52;;
53899;SDS011;40509;32.858;-116.858;2023-05-07T09:59:32;1.55;;;1.17;;
53899;SDS011;40509;32.858;-116.858;2023-05-07T10:02:04;1.05;;;0.57;;
53899;SDS011;40509;32.858;-116.858;2023-05-07T10:04:38;1.23;;;0.30;;
53899;SDS011;40509;32.858;-116.858;2023-05-07T10:07:07;1.13;;;0.50;;
53899;SDS011;40509;32.858;-116.858;2023-05-07T10:09:36;0.50;;;0.50;;
53899;SDS011;40509;32.858;-116.858;2023-05-07T10:12:06;0.28;;;0.28;;
53899;SDS011;40509;32.858;-116.858;2023-05-07T10:14:35;0.93;;;0.80;;
53899;SDS011;40509;32.858;-116.858;2023-05-07T10:17:03;0.55;;;0.47;;
53899;SDS011;40509;32.858;-116.858;2023-05-07T10:19:32;0.95;;;0.70;;
53899;SDS011;40509;32.858;-116.858;2023-05-07T10:22:05;0.88;;;0.65;;
53899;SDS011;40509;32.858;-116.858;2023-05-07T10:24:37;3.20;;;0.52;;
53899;SDS011;40509;32.858;-116.858;2023-05-07T10:27:11;1.05;;;0.50;;
53899;SDS011;40509;32.858;-116.858;2023-05-07T10:35:19;1.35;;;0.43;;
53899;SDS011;40509;32.858;-116.858;2023-05-07T10:37:50;4.57;;;0.57;;
53899;SDS011;40509;32.858;-116.858;2023-05-07T10:40:20;1.00;;;0.90;;
53899;SDS011;40509;32.858;-116.858;2023-05-07T10:45:29;0.70;;;0.57;;
53899;SDS011;40509;32.858;-116.858;2023-05-07T10:48:12;1.20;;;0.47;;
53899;SDS011;40509;32.858;-116.858;2023-05-07T10:50:49;0.38;;;0.38;;
53899;SDS011;40509;32.858;-116.858;2023-05-07T10:53:36;4.40;;;0.70;;
53899;SDS011;40509;32.858;-116.858;2023-05-07T10:58:55;0.50;;;0.50;;
53899;SDS011;40509;32.858;-116.858;2023-05-07T11:01:49;0.35;;;0.35;;
53899;SDS011;40509;32.858;-116.858;2023-05-07T11:04:25;0.98;;;0.60;;
53899;SDS011;40509;32.858;-116.858;2023-05-07T11:07:27;0.50;;;0.40;;
53899;SDS011;40509;32.858;-116.858;2023-05-07T11:10:03;1.65;;;0.68;;
53899;SDS011;40509;32.858;-116.858;2023-05-07T11:12:57;1.02;;;0.32;;
53899;SDS011;40509;32.858;-116.858;2023-05-07T11:15:37;0.68;;;0.50;;
53899;SDS011;40509;32.858;-116.858;2023-05-07T11:18:17;0.95;;;0.77;;
53899;SDS011;40509;32.858;-116.858;2023-05-07T11:20:48;0.50;;;0.50;;
53899;SDS011;40509;32.858;-116.858;2023-05-07T11:26:26;0.88;;;0.32;;
53899;SDS011;40509;32.858;-116.858;2023-05-07T11:28:55;1.10;;;0.47;;
53899;SDS011;40509;32.858;-116.858;2023-05-07T11:31:25;0.40;;;0.40;;
53899;SDS011;40509;32.858;-116.858;2023-05-07T11:33:57;0.75;;;0.50;;
53899;SDS011;40509;32.858;-116.858;2023-05-07T11:36:25;1.17;;;0.40;;
53899;SDS011;40509;32.858;-116.858;2023-05-07T11:38:59;0.47;;;0.40;;
53899;SDS011;40509;32.858;-116.858;2023-05-07T11:41:36;0.30;;;0.30;;
53899;SDS011;40509;32.858;-116.858;2023-05-07T11:44:04;1.85;;;0.57;;
53899;SDS011;40509;32.858;-116.858;2023-05-07T11:46:31;0.20;;;0.20;;
53899;SDS011;40509;32.858;-116.858;2023-05-07T11:49:00;0.77;;;0.40;;
53899;SDS011;40509;32.858;-116.858;2023-05-07T11:51:27;0.57;;;0.55;;
53899;SDS011;40509;32.858;-116.858;2023-05-07T11:53:54;4.13;;;0.30;;
53899;SDS011;40509;32.858;-116.858;2023-05-07T11:56:22;0.28;;;0.28;;
53899;SDS011;40509;32.858;-116.858;2023-05-07T11:58:49;0.73;;;0.73;;
53899;SDS011;40509;32.858;-116.858;2023-05-07T12:01:18;0.73;;;0.50;;
53899;SDS011;40509;32.858;-116.858;2023-05-07T12:03:45;0.40;;;0.40;;
53899;SDS011;40509;32.858;-116.858;2023-05-07T12:06:16;0.93;;;0.50;;
53899;SDS011;40509;32.858;-116.858;2023-05-07T12:08:43;1.35;;;0.45;;
53899;SDS011;40509;32.858;-116.858;2023-05-07T12:11:24;1.55;;;0.93;;
53899;SDS011;40509;32.858;-116.858;2023-05-07T12:13:53;0.63;;;0.43;;
53899;SDS011;40509;32.858;-116.858;2023-05-07T12:16:22;1.23;;;0.70;;
53899;SDS011;40509;32.858;-116.858;2023-05-07T12:18:50;0.80;;;0.50;;
53899;SDS011;40509;32.858;-116.858;2023-05-07T12:21:19;0.30;;;0.30;;
53899;SDS011;40509;32.858;-116.858;2023-05-07T12:23:46;2.50;;;0.45;;
53899;SDS011;40509;32.858;-116.858;2023-05-07T12:26:14;3.95;;;0.50;;
53899;SDS011;40509;32.858;-116.858;2023-05-07T12:28:41;0.38;;;0.35;;
53899;SDS011;40509;32.858;-116.858;2023-05-07T12:31:08;0.38;;;0.35;;
53899;SDS011;40509;32.858;-116.858;2023-05-07T12:33:36;1.13;;;0.47;;
53899;SDS011;40509;32.858;-116.858;2023-05-07T12:36:05;0.30;;;0.30;;
53899;SDS011;40509;32.858;-116.858;2023-05-07T12:38:37;0.82;;;0.57;;
53899;SDS011;40509;32.858;-116.858;2023-05-07T12:41:08;1.13;;;0.63;;
53899;SDS011;40509;32.858;-116.858;2023-05-07T12:43:36;7.32;;;0.65;;
53899;SDS011;40509;32.858;-116.858;2023-05-07T12:46:06;0.73;;;0.40;;
53899;SDS011;40509;32.858;-116.858;2023-05-07T12:48:35;0.52;;;0.47;;
53899;SDS011;40509;32.858;-116.858;2023-05-07T12:51:04;2.20;;;0.45;;
53899;SDS011;40509;32.858;-116.858;2023-05-07T12:53:33;0.65;;;0.50;;
53899;SDS011;40509;32.858;-116.858;2023-05-07T12:56:10;1.23;;;0.30;;
53899;SDS011;40509;32.858;-116.858;2023-05-07T12:58:37;0.35;;;0.35;;
53899;SDS011;40509;32.858;-116.858;2023-05-07T13:01:05;0.73;;;0.68;;
53899;SDS011;40509;32.858;-116.858;2023-05-07T13:03:36;0.35;;;0.35;;
53899;SDS011;40509;32.858;-116.858;2023-05-07T13:06:07;5.80;;;0.55;;
53899;SDS011;40509;32.858;-116.858;2023-05-07T13:11:04;0.40;;;0.40;;
53899;SDS011;40509;32.858;-116.858;2023-05-07T13:13:31;0.40;;;0.32;;
53899;SDS011;40509;32.858;-116.858;2023-05-07T13:16:03;1.02;;;0.40;;
53899;SDS011;40509;32.858;-116.858;2023-05-07T13:18:32;0.90;;;0.65;;
53899;SDS011;40509;32.858;-116.858;2023-05-07T13:21:01;2.08;;;0.70;;
53899;SDS011;40509;32.858;-116.858;2023-05-07T13:23:28;0.20;;;0.20;;
53899;SDS011;40509;32.858;-116.858;2023-05-07T13:25:55;0.30;;;0.30;;
53899;SDS011;40509;32.858;-116.858;2023-05-07T13:28:23;0.85;;;0.30;;
53899;SDS011;40509;32.858;-116.858;2023-05-07T13:30:52;0.90;;;0.70;;
53899;SDS011;40509;32.858;-116.858;2023-05-07T13:33:20;0.50;;;0.40;;
53899;SDS011;40509;32.858;-116.858;2023-05-07T13:35:48;0.40;;;0.30;;
53899;SDS011;40509;32.858;-116.858;2023-05-07T13:38:15;0.50;;;0.32;;
53899;SDS011;40509;32.858;-116.858;2023-05-07T13:40:42;0.65;;;0.60;;
53899;SDS011;40509;32.858;-116.858;2023-05-07T13:43:09;0.57;;;0.57;;
53899;SDS011;40509;32.858;-116.858;2023-05-07T13:45:36;0.22;;;0.22;;
53899;SDS011;40509;32.858;-116.858;2023-05-07T13:48:04;1.20;;;0.40;;
53899;SDS011;40509;32.858;-116.858;2023-05-07T13:50:31;0.50;;;0.30;;
53899;SDS011;40509;32.858;-116.858;2023-05-07T13:52:58;0.43;;;0.43;;
53899;SDS011;40509;32.858;-116.858;2023-05-07T13:55:25;1.05;;;0.32;;
53899;SDS011;40509;32.858;-116.858;2023-05-07T13:57:56;0.65;;;0.57;;
53899;SDS011;40509;32.858;-116.858;2023-05-07T14:00:24;1.80;;;0.28;;
53899;SDS011;40509;32.858;-116.858;2023-05-07T14:02:53;0.30;;;0.30;;
53899;SDS011;40509;32.858;-116.858;2023-05-07T14:05:21;0.25;;;0.25;;
53899;SDS011;40509;32.858;-116.858;2023-05-07T14:07:52;2.03;;;0.43;;
53899;SDS011;40509;32.858;-116.858;2023-05-07T14:10:21;3.25;;;0.65;;
53899;SDS011;40509;32.858;-116.858;2023-05-07T14:12:48;0.40;;;0.40;;
53899;SDS011;40509;32.858;-116.858;2023-05-07T14:15:16;1.00;;;0.52;;
53899;SDS011;40509;32.858;-116.858;2023-05-07T14:17:43;0.25;;;0.25;;
53899;SDS011;40509;32.858;-116.858;2023-05-07T14:20:11;0.77;;;0.50;;
53899;SDS011;40509;32.858;-116.858;2023-05-07T14:22:38;0.40;;;0.40;;
53899;SDS011;40509;32.858;-116.858;2023-05-07T14:25:06;0.40;;;0.40;;
53899;SDS011;40509;32.858;-116.858;2023-05-07T14:27:34;0.77;;;0.60;;
53899;SDS011;40509;32.858;-116.858;2023-05-07T14:30:01;0.82;;;0.45;;
53899;SDS011;40509;32.858;-116.858;2023-05-07T14:32:31;2.25;;;0.43;;
53899;SDS011;40509;32.858;-116.858;2023-05-07T14:34:59;0.50;;;0.40;;
53899;SDS011;40509;32.858;-116.858;2023-05-07T14:37:26;0.75;;;0.68;;
53899;SDS011;40509;32.858;-116.858;2023-05-07T14:39:54;1.50;;;0.55;;